createdAt,value
2019-03-01T00:00:02.646Z,6.30
2019-03-01T00:02:31.611Z,6.40
2019-03-01T00:05:37.171Z,6.40
2019-03-01T00:08:18.080Z,6.50
2019-03-01T00:11:05.642Z,6.60
2019-03-01T00:14:19.907Z,6.40
2019-03-01T00:16:58.690Z,6.20
2019-03-01T00:20:05.436Z,5.90
2019-03-01T00:23:04.160Z,5.90
2019-03-01T00:25:55.763Z,5.90
2019-03-01T00:28:44.644Z,5.70
2019-03-01T00:31:30.138Z,5.70
2019-03-01T00:34:21.831Z,5.50
2019-03-01T00:37:23.926Z,5.40
2019-03-01T00:40:11.576Z,5.30
2019-03-01T00:43:14.155Z,5.40
2019-03-01T00:45:43.180Z,5.50
2019-03-01T00:48:12.222Z,5.60
2019-03-01T00:50:41.440Z,5.70
2019-03-01T00:53:11.014Z,5.80
2019-03-01T00:55:39.967Z,5.90
2019-03-01T00:58:09.079Z,6.00
2019-03-01T01:00:41.867Z,6.10
2019-03-01T01:03:11.267Z,6.20
2019-03-01T01:05:40.371Z,6.30
2019-03-01T01:08:09.495Z,6.30
2019-03-01T01:10:38.596Z,6.30
2019-03-01T01:13:07.627Z,6.20
2019-03-01T01:15:36.966Z,6.10
2019-03-01T01:18:06.079Z,6.10
2019-03-01T01:20:35.110Z,6.00
2019-03-01T01:23:04.209Z,6.00
2019-03-01T01:25:33.427Z,6.00
2019-03-01T01:28:02.435Z,6.00
2019-03-01T01:30:31.403Z,6.00
2019-03-01T01:33:00.377Z,6.10
2019-03-01T01:35:31.676Z,6.20
2019-03-01T01:38:00.835Z,6.20
2019-03-01T01:40:29.807Z,6.30
2019-03-01T01:42:59.086Z,6.30
2019-03-01T01:45:28.183Z,6.20
2019-03-01T01:47:57.204Z,6.10
2019-03-01T01:50:26.470Z,6.10
2019-03-01T01:52:55.691Z,6.00
2019-03-01T01:55:24.654Z,6.00
2019-03-01T01:57:53.773Z,6.00
2019-03-01T02:00:22.811Z,6.00
2019-03-01T02:02:51.742Z,6.00
2019-03-01T02:05:20.869Z,5.90
2019-03-01T02:07:50.193Z,5.90
2019-03-01T02:10:19.284Z,5.90
2019-03-01T02:12:48.491Z,5.90
2019-03-01T02:15:17.746Z,5.90
2019-03-01T02:17:47.024Z,5.90
2019-03-01T02:20:16.402Z,5.90
2019-03-01T02:22:45.356Z,5.90
2019-03-01T02:25:14.506Z,5.90
2019-03-01T02:27:43.743Z,6.00
2019-03-01T02:30:15.628Z,6.00
2019-03-01T02:32:48.918Z,6.00
2019-03-01T02:35:22.662Z,6.00
2019-03-01T02:37:51.722Z,6.00
2019-03-01T02:40:20.924Z,6.00
2019-03-01T02:42:50.161Z,6.00
2019-03-01T02:45:21.183Z,6.00
2019-03-01T02:47:50.214Z,6.00
2019-03-01T02:50:19.959Z,6.00
2019-03-01T02:52:49.052Z,6.00
2019-03-01T02:55:19.357Z,6.00
2019-03-01T02:57:48.704Z,6.00
2019-03-01T03:00:25.536Z,6.00
2019-03-01T03:02:54.690Z,6.10
2019-03-01T03:05:23.945Z,6.00
2019-03-01T03:07:57.768Z,6.00
2019-03-01T03:10:26.784Z,6.00
2019-03-01T03:12:58.394Z,6.00
2019-03-01T03:15:33.276Z,5.90
2019-03-01T03:18:02.399Z,6.00
2019-03-01T03:20:31.479Z,6.00
2019-03-01T03:23:00.458Z,6.00
2019-03-01T03:25:29.414Z,6.00
2019-03-01T03:27:58.468Z,5.90
2019-03-01T03:30:27.611Z,6.00
2019-03-01T03:32:56.593Z,5.90
2019-03-01T03:35:25.573Z,5.90
2019-03-01T03:37:54.838Z,5.90
2019-03-01T03:40:23.862Z,5.90
2019-03-01T03:42:52.902Z,5.90
2019-03-01T03:45:22.399Z,5.90
2019-03-01T03:47:51.790Z,6.00
2019-03-01T03:50:20.888Z,5.90
2019-03-01T03:52:49.900Z,5.80
2019-03-01T03:55:19.395Z,5.80
2019-03-01T03:57:48.562Z,5.80
2019-03-01T04:00:18.905Z,5.80
2019-03-01T04:02:48.511Z,5.80
2019-03-01T04:05:17.922Z,5.80
2019-03-01T04:07:47.556Z,5.80
2019-03-01T04:10:16.822Z,5.80
2019-03-01T04:12:45.871Z,5.80
2019-03-01T04:15:15.013Z,5.80
2019-03-01T04:17:44.132Z,5.70
2019-03-01T04:20:14.972Z,5.80
2019-03-01T04:22:43.983Z,5.70
2019-03-01T04:25:14.145Z,5.70
2019-03-01T04:27:43.166Z,5.70
2019-03-01T04:30:14.303Z,5.70
2019-03-01T04:32:43.259Z,5.70
2019-03-01T04:35:12.965Z,5.70
2019-03-01T04:37:42.052Z,5.70
2019-03-01T04:40:14.460Z,5.70
2019-03-01T04:42:43.729Z,5.70
2019-03-01T04:45:13.001Z,5.70
2019-03-01T04:47:42.156Z,5.70
2019-03-01T04:50:11.315Z,5.80
2019-03-01T04:52:40.455Z,5.80
2019-03-01T04:55:17.306Z,5.80
2019-03-01T04:57:46.389Z,5.70
2019-03-01T05:00:17.660Z,5.70
2019-03-01T05:02:46.913Z,5.70
2019-03-01T05:05:16.735Z,5.70
2019-03-01T05:07:45.934Z,5.70
2019-03-01T05:10:16.028Z,5.70
2019-03-01T05:12:45.233Z,5.80
2019-03-01T05:15:16.254Z,5.70
2019-03-01T05:17:45.255Z,5.70
2019-03-01T05:20:15.667Z,5.70
2019-03-01T05:22:44.632Z,5.70
2019-03-01T05:25:13.743Z,5.60
2019-03-01T05:27:43.018Z,5.60
2019-03-01T05:30:13.590Z,5.60
2019-03-01T05:32:43.618Z,5.50
2019-03-01T05:35:13.239Z,5.50
2019-03-01T05:37:42.615Z,5.50
2019-03-01T05:40:12.487Z,5.50
2019-03-01T05:42:41.429Z,5.50
2019-03-01T05:45:16.125Z,5.50
2019-03-01T05:47:45.592Z,5.50
2019-03-01T05:50:14.814Z,5.50
2019-03-01T05:52:44.191Z,5.40
2019-03-01T05:55:13.323Z,5.50
2019-03-01T05:58:18.489Z,5.50
2019-03-01T06:00:48.034Z,5.40
2019-03-01T06:03:41.595Z,5.50
2019-03-01T06:06:11.986Z,5.50
2019-03-01T06:09:05.239Z,5.50
2019-03-01T06:11:41.026Z,5.60
2019-03-01T06:14:55.791Z,5.60
2019-03-01T06:17:53.900Z,5.60
2019-03-01T06:20:57.199Z,5.70
2019-03-01T06:24:03.351Z,5.60
2019-03-01T06:27:16.461Z,5.70
2019-03-01T06:30:14.151Z,5.70
2019-03-01T06:33:13.426Z,5.70
2019-03-01T06:35:59.483Z,5.80
2019-03-01T06:39:21.954Z,5.80
2019-03-01T06:42:18.841Z,5.80
2019-03-01T06:45:19.848Z,5.90
2019-03-01T06:47:49.799Z,5.90
2019-03-01T06:50:21.048Z,5.90
2019-03-01T06:52:50.170Z,6.00
2019-03-01T06:55:55.746Z,6.10
2019-03-01T06:58:27.030Z,6.10
2019-03-01T07:01:10.323Z,6.10
2019-03-01T07:03:39.335Z,6.20
2019-03-01T07:06:08.395Z,6.30
2019-03-01T07:08:37.302Z,6.30
2019-03-01T07:11:06.670Z,6.30
2019-03-01T07:13:35.611Z,6.20
2019-03-01T07:16:04.603Z,6.20
2019-03-01T07:18:33.798Z,6.30
2019-03-01T07:21:02.768Z,6.30
2019-03-01T07:23:36.737Z,6.30
2019-03-01T07:26:03.004Z,6.30
2019-03-01T07:28:31.936Z,6.30
2019-03-01T07:31:00.882Z,6.40
2019-03-01T07:33:29.811Z,6.50
2019-03-01T07:35:58.782Z,6.50
2019-03-01T07:38:27.769Z,6.50
2019-03-01T07:40:57.067Z,6.50
2019-03-01T07:43:26.029Z,6.40
2019-03-01T07:45:54.960Z,6.40
2019-03-01T07:48:23.896Z,6.30
2019-03-01T07:50:55.214Z,6.40
2019-03-01T07:53:23.833Z,6.30
2019-03-01T07:55:53.058Z,6.30
2019-03-01T07:58:25.501Z,6.20
2019-03-01T08:00:54.581Z,6.30
2019-03-01T08:03:23.790Z,6.30
2019-03-01T08:05:52.762Z,6.40
2019-03-01T08:08:21.704Z,6.30
2019-03-01T08:10:53.609Z,6.30
2019-03-01T08:13:21.680Z,6.30
2019-03-01T08:15:50.718Z,6.30
2019-03-01T08:18:19.763Z,6.20
2019-03-01T08:20:48.803Z,6.20
2019-03-01T08:23:17.919Z,6.20
2019-03-01T08:25:47.143Z,6.10
2019-03-01T08:28:18.535Z,6.10
2019-03-01T08:30:47.031Z,6.10
2019-03-01T08:33:16.397Z,6.10
2019-03-01T08:35:45.516Z,6.10
2019-03-01T08:38:14.483Z,6.10
2019-03-01T08:40:46.626Z,6.10
2019-03-01T08:43:14.154Z,6.10
2019-03-01T08:45:43.095Z,6.20
2019-03-01T08:48:12.069Z,6.10
2019-03-01T08:50:41.315Z,6.20
2019-03-01T08:53:11.484Z,6.20
2019-03-01T08:55:41.258Z,6.30
2019-03-01T08:58:10.286Z,6.30
2019-03-01T09:00:39.672Z,6.40
2019-03-01T09:03:16.368Z,6.40
2019-03-01T09:05:46.392Z,6.40
2019-03-01T09:08:15.635Z,6.50
2019-03-01T09:10:44.591Z,6.40
2019-03-01T09:13:13.543Z,6.40
2019-03-01T09:15:42.533Z,6.40
2019-03-01T09:18:14.531Z,6.40
2019-03-01T09:20:42.362Z,6.50
2019-03-01T09:23:22.869Z,6.50
2019-03-01T09:25:44.546Z,6.50
2019-03-01T09:28:13.406Z,6.50
2019-03-01T09:30:43.521Z,6.60
2019-03-01T09:33:13.372Z,6.70
2019-03-01T09:35:46.930Z,6.70
2019-03-01T09:38:15.919Z,6.80
2019-03-01T09:40:45.020Z,6.80
2019-03-01T09:43:14.310Z,6.80
2019-03-01T09:45:45.738Z,6.80
2019-03-01T09:48:14.333Z,6.80
2019-03-01T09:50:43.347Z,6.80
2019-03-01T09:53:12.650Z,6.90
2019-03-01T09:55:41.892Z,6.90
2019-03-01T09:58:10.860Z,6.90
2019-03-01T10:00:41.360Z,6.90
2019-03-01T10:03:10.414Z,6.80
2019-03-01T10:05:39.473Z,6.80
2019-03-01T10:08:08.447Z,6.80
2019-03-01T10:10:37.503Z,6.90
2019-03-01T10:13:06.519Z,6.90
2019-03-01T10:15:35.810Z,6.90
2019-03-01T10:18:05.282Z,7.00
2019-03-01T10:20:34.321Z,7.10
2019-03-01T10:23:03.219Z,7.10
2019-03-01T10:25:32.230Z,7.10
2019-03-01T10:28:01.372Z,7.20
2019-03-01T10:30:30.317Z,7.10
2019-03-01T10:32:59.808Z,7.10
2019-03-01T10:35:28.863Z,7.00
2019-03-01T10:37:57.850Z,7.10
2019-03-01T10:40:26.905Z,7.00
2019-03-01T10:42:55.870Z,7.00
2019-03-01T10:45:24.875Z,7.10
2019-03-01T10:47:54.208Z,7.10
2019-03-01T10:50:23.246Z,7.30
2019-03-01T10:52:52.648Z,7.50
2019-03-01T10:55:22.235Z,7.60
2019-03-01T10:57:51.770Z,7.70
2019-03-01T11:00:22.544Z,7.80
2019-03-01T11:02:51.753Z,7.80
2019-03-01T11:05:20.862Z,7.90
2019-03-01T11:07:50.456Z,8.00
2019-03-01T11:10:22.084Z,8.00
2019-03-01T11:12:51.459Z,8.00
2019-03-01T11:15:20.592Z,8.00
2019-03-01T11:17:49.727Z,7.90
2019-03-01T11:20:20.847Z,7.80
2019-03-01T11:22:52.009Z,7.70
2019-03-01T11:25:21.710Z,7.50
2019-03-01T11:27:51.600Z,7.50
2019-03-01T11:30:22.918Z,7.50
2019-03-01T11:32:51.890Z,7.40
2019-03-01T11:35:21.538Z,7.30
2019-03-01T11:37:50.623Z,7.30
2019-03-01T11:40:21.889Z,7.20
2019-03-01T11:42:50.974Z,7.20
2019-03-01T11:45:20.148Z,7.10
2019-03-01T11:47:50.830Z,7.00
2019-03-01T11:50:21.558Z,7.10
2019-03-01T11:52:50.972Z,7.10
2019-03-01T11:55:20.102Z,7.10
2019-03-01T11:57:50.426Z,7.00
2019-03-01T12:00:20.574Z,7.00
2019-03-01T12:02:50.498Z,7.00
2019-03-01T12:05:19.822Z,7.00
2019-03-01T12:07:49.162Z,6.90
2019-03-01T12:10:22.519Z,6.90
2019-03-01T12:12:51.498Z,6.90
2019-03-01T12:15:20.803Z,6.90
2019-03-01T12:17:49.932Z,6.90
2019-03-01T12:20:22.389Z,6.90
2019-03-01T12:22:51.452Z,6.90
2019-03-01T12:25:20.603Z,7.00
2019-03-01T12:27:49.947Z,7.20
2019-03-01T12:30:20.740Z,7.30
2019-03-01T12:32:51.107Z,7.40
2019-03-01T12:35:20.199Z,7.60
2019-03-01T12:37:49.703Z,7.50
2019-03-01T12:40:21.377Z,7.40
2019-03-01T12:42:50.702Z,7.30
2019-03-01T12:45:19.812Z,7.20
2019-03-01T12:47:48.811Z,7.20
2019-03-01T12:50:17.900Z,7.10
2019-03-01T12:52:47.177Z,7.10
2019-03-01T12:55:17.656Z,7.20
2019-03-01T12:57:46.850Z,7.30
2019-03-01T13:00:18.405Z,7.30
2019-03-01T13:02:47.738Z,7.30
2019-03-01T13:05:17.022Z,7.40
2019-03-01T13:07:46.538Z,7.40
2019-03-01T13:10:18.580Z,7.40
2019-03-01T13:12:47.671Z,7.50
2019-03-01T13:15:18.965Z,7.60
2019-03-01T13:17:50.235Z,7.50
2019-03-01T13:20:19.361Z,7.50
2019-03-01T13:22:48.347Z,7.50
2019-03-01T13:25:17.457Z,7.40
2019-03-01T13:27:48.673Z,7.40
2019-03-01T13:30:19.320Z,7.30
2019-03-01T13:32:48.630Z,7.20
2019-03-01T13:35:17.919Z,7.00
2019-03-01T13:37:47.065Z,6.90
2019-03-01T13:40:17.007Z,6.90
2019-03-01T13:42:47.141Z,6.80
2019-03-01T13:45:17.905Z,6.70
2019-03-01T13:47:46.894Z,6.60
2019-03-01T13:50:16.855Z,6.60
2019-03-01T13:52:45.938Z,6.60
2019-03-01T13:55:18.567Z,6.60
2019-03-01T13:57:49.934Z,6.60
2019-03-01T14:00:18.034Z,6.50
2019-03-01T14:02:47.970Z,6.60
2019-03-01T14:05:17.697Z,6.50
2019-03-01T14:07:46.835Z,6.40
2019-03-01T14:10:17.790Z,6.30
2019-03-01T14:12:47.176Z,6.20
2019-03-01T14:15:17.231Z,6.20
2019-03-01T14:17:46.206Z,6.10
2019-03-01T14:20:20.332Z,6.10
2019-03-01T14:22:48.062Z,6.10
2019-03-01T14:25:18.114Z,6.10
2019-03-01T14:27:47.216Z,6.10
2019-03-01T14:30:18.762Z,6.00
2019-03-01T14:32:48.077Z,6.00
2019-03-01T14:35:20.117Z,5.90
2019-03-01T14:37:53.947Z,5.90
2019-03-01T14:40:22.402Z,5.90
2019-03-01T14:42:49.935Z,5.90
2019-03-01T14:45:25.485Z,5.90
2019-03-01T14:47:54.336Z,5.90
2019-03-01T14:50:24.064Z,5.90
2019-03-01T14:52:57.263Z,5.90
2019-03-01T14:55:26.975Z,5.90
2019-03-01T14:58:02.939Z,5.90
2019-03-01T15:00:41.838Z,6.00
2019-03-01T15:03:31.379Z,6.00
2019-03-01T15:06:00.522Z,6.10
2019-03-01T15:08:29.675Z,6.20
2019-03-01T15:11:00.748Z,6.30
2019-03-01T15:13:31.376Z,6.40
2019-03-01T15:16:01.090Z,6.40
2019-03-01T15:18:32.252Z,6.40
2019-03-01T15:21:02.835Z,6.40
2019-03-01T15:23:32.108Z,6.50
2019-03-01T15:29:08.734Z,6.30
2019-03-01T15:31:37.764Z,6.30
2019-03-01T15:34:07.022Z,6.20
2019-03-01T15:36:36.562Z,6.20
2019-03-01T15:39:08.395Z,6.40
2019-03-01T15:41:39.166Z,6.40
2019-03-01T15:44:08.185Z,6.40
2019-03-01T15:46:37.362Z,6.50
2019-03-01T15:49:06.391Z,6.50
2019-03-01T15:51:38.149Z,6.40
2019-03-01T15:54:06.484Z,6.40
2019-03-01T15:56:35.595Z,6.30
2019-03-01T15:59:06.038Z,6.40
2019-03-01T16:01:35.231Z,6.30
2019-03-01T16:04:04.259Z,6.30
2019-03-01T16:06:33.305Z,6.20
2019-03-01T16:09:02.367Z,6.20
2019-03-01T16:11:31.556Z,6.20
2019-03-01T16:14:00.715Z,6.20
2019-03-01T16:16:29.629Z,6.10
2019-03-01T16:18:58.867Z,6.00
2019-03-01T16:21:27.892Z,6.00
2019-03-01T16:23:56.939Z,6.00
2019-03-01T16:26:29.768Z,6.00
2019-03-01T16:28:56.897Z,6.00
2019-03-01T16:31:25.857Z,6.00
2019-03-01T16:33:55.130Z,5.90
2019-03-01T16:36:31.778Z,5.90
2019-03-01T16:39:00.983Z,5.80
2019-03-01T16:41:30.443Z,5.90
2019-03-01T16:44:01.451Z,5.90
2019-03-01T16:46:31.339Z,5.90
2019-03-01T16:49:01.164Z,5.90
2019-03-01T16:51:30.163Z,5.90
2019-03-01T16:53:59.215Z,5.70
2019-03-01T16:56:28.250Z,5.70
2019-03-01T16:59:00.423Z,5.70
2019-03-01T17:01:29.776Z,5.70
2019-03-01T17:03:59.471Z,5.70
2019-03-01T17:06:28.855Z,5.70
2019-03-01T17:08:58.054Z,5.60
2019-03-01T17:11:27.014Z,5.60
2019-03-01T17:13:56.053Z,5.60
2019-03-01T17:16:28.522Z,5.60
2019-03-01T17:18:57.473Z,5.60
2019-03-01T17:21:29.892Z,5.60
2019-03-01T17:23:58.823Z,5.50
2019-03-01T17:26:29.971Z,5.50
2019-03-01T17:28:59.754Z,5.50
2019-03-01T17:31:29.320Z,5.50
2019-03-01T17:33:58.265Z,5.60
2019-03-01T17:36:27.225Z,5.60
2019-03-01T17:38:56.181Z,5.60
2019-03-01T17:41:26.375Z,5.60
2019-03-01T17:44:01.089Z,5.70
2019-03-01T17:46:32.921Z,5.80
2019-03-01T17:49:00.930Z,5.70
2019-03-01T17:51:29.860Z,5.70
2019-03-01T17:53:58.886Z,5.60
2019-03-01T17:56:28.235Z,5.50
2019-03-01T17:58:57.179Z,5.40
2019-03-01T18:01:26.202Z,5.40
2019-03-01T18:03:58.081Z,5.40
2019-03-01T18:06:26.453Z,5.30
2019-03-01T18:08:56.230Z,5.40
2019-03-01T18:11:26.163Z,5.40
2019-03-01T18:13:56.858Z,5.50
2019-03-01T18:16:26.329Z,5.60
2019-03-01T18:18:55.519Z,5.70
2019-03-01T18:21:24.722Z,5.70
2019-03-01T18:23:53.663Z,5.70
2019-03-01T18:26:23.073Z,5.60
2019-03-01T18:28:52.164Z,5.60
2019-03-01T18:31:21.549Z,5.60
2019-03-01T18:33:53.668Z,5.60
2019-03-01T18:36:21.390Z,5.50
2019-03-01T18:38:50.310Z,5.40
2019-03-01T18:41:19.623Z,5.40
2019-03-01T18:43:49.289Z,5.30
2019-03-01T18:46:20.593Z,5.30
2019-03-01T18:48:49.662Z,5.30
2019-03-01T18:51:18.686Z,5.20
2019-03-01T18:53:47.698Z,5.20
2019-03-01T18:56:16.650Z,5.20
2019-03-01T18:58:48.854Z,5.20
2019-03-01T19:01:16.562Z,5.20
2019-03-01T19:03:45.543Z,5.20
2019-03-01T19:06:16.296Z,5.30
2019-03-01T19:08:45.508Z,5.50
2019-03-01T19:11:14.507Z,5.60
2019-03-01T19:13:43.570Z,5.50
2019-03-01T19:16:12.907Z,5.50
2019-03-01T19:18:42.258Z,5.40
2019-03-01T19:21:13.934Z,5.40
2019-03-01T19:23:43.567Z,5.30
2019-03-01T19:26:12.879Z,5.20
2019-03-01T19:28:41.944Z,5.20
2019-03-01T19:31:11.264Z,5.20
2019-03-01T19:33:41.705Z,5.20
2019-03-01T19:36:11.341Z,5.10
2019-03-01T19:38:40.196Z,5.00
2019-03-01T19:41:09.732Z,4.90
2019-03-01T19:43:41.619Z,4.80
2019-03-01T19:46:09.431Z,4.80
2019-03-01T19:48:38.809Z,4.70
2019-03-01T19:51:08.330Z,4.70
2019-03-01T19:53:37.628Z,4.70
2019-03-01T19:56:06.968Z,4.60
2019-03-01T19:58:36.191Z,4.60
2019-03-01T20:01:05.521Z,4.50
2019-03-01T20:03:34.607Z,4.50
2019-03-01T20:06:04.550Z,4.50
2019-03-01T20:08:34.222Z,4.40
2019-03-01T20:11:03.275Z,4.40
2019-03-01T20:13:32.591Z,4.40
2019-03-01T20:16:01.856Z,4.30
2019-03-01T20:18:31.077Z,4.30
2019-03-01T20:21:00.599Z,4.20
2019-03-01T20:23:30.746Z,4.20
2019-03-01T20:25:59.971Z,4.20
2019-03-01T20:28:29.166Z,4.20
2019-03-01T20:30:58.258Z,4.20
2019-03-01T20:33:27.888Z,4.20
2019-03-01T20:35:57.411Z,4.20
2019-03-01T20:38:26.859Z,4.20
2019-03-01T20:40:55.820Z,4.20
2019-03-01T20:43:24.780Z,4.20
2019-03-01T20:45:53.780Z,4.20
2019-03-01T20:48:25.612Z,4.20
2019-03-01T20:50:54.183Z,4.20
2019-03-01T20:53:23.231Z,4.10
2019-03-01T20:55:52.314Z,4.00
2019-03-01T20:58:22.149Z,4.00
2019-03-01T21:00:51.395Z,3.90
2019-03-01T21:03:23.668Z,3.90
2019-03-01T21:05:51.115Z,3.80
2019-03-01T21:08:20.138Z,3.80
2019-03-01T21:10:50.059Z,3.80
2019-03-01T21:13:19.735Z,3.80
2019-03-01T21:15:48.710Z,3.80
2019-03-01T21:18:17.705Z,4.00
2019-03-01T21:20:46.662Z,4.00
2019-03-01T21:23:15.936Z,4.00
2019-03-01T21:25:45.046Z,4.00
2019-03-01T21:28:14.129Z,4.00
2019-03-01T21:30:43.229Z,3.90
2019-03-01T21:33:12.227Z,3.90
2019-03-01T21:35:41.237Z,3.90
2019-03-01T21:38:13.693Z,3.90
2019-03-01T21:40:41.604Z,3.90
2019-03-01T21:43:10.558Z,3.90
2019-03-01T21:45:39.605Z,3.90
2019-03-01T21:48:08.878Z,3.90
2019-03-01T21:50:38.614Z,3.90
2019-03-01T21:53:08.775Z,3.80
2019-03-01T21:55:37.742Z,3.80
2019-03-01T21:58:07.636Z,3.80
2019-03-01T22:00:36.953Z,3.80
2019-03-01T22:03:05.961Z,3.80
2019-03-01T22:05:35.056Z,3.80
2019-03-01T22:08:04.083Z,3.70
2019-03-01T22:10:35.638Z,3.70
2019-03-01T22:13:04.274Z,3.70
2019-03-01T22:15:33.298Z,3.60
2019-03-01T22:18:02.262Z,3.60
2019-03-01T22:20:31.210Z,3.60
2019-03-01T22:23:00.150Z,3.60
2019-03-01T22:25:29.207Z,3.50
2019-03-01T22:28:01.171Z,3.50
2019-03-01T22:30:29.800Z,3.50
2019-03-01T22:32:58.797Z,3.50
2019-03-01T22:35:27.883Z,3.40
2019-03-01T22:38:00.827Z,3.50
2019-03-01T22:40:29.333Z,3.50
2019-03-01T22:42:58.456Z,3.40
2019-03-01T22:45:27.483Z,3.40
2019-03-01T22:47:56.494Z,3.40
2019-03-01T22:50:25.748Z,3.40
2019-03-01T22:52:54.698Z,3.40
2019-03-01T22:55:23.907Z,3.40
2019-03-01T22:57:53.229Z,3.30
2019-03-01T23:01:05.182Z,3.40
2019-03-01T23:03:34.179Z,3.40
2019-03-01T23:06:03.632Z,3.40
2019-03-01T23:08:35.535Z,3.40
2019-03-01T23:11:03.599Z,3.40
2019-03-01T23:13:32.675Z,3.40
2019-03-01T23:16:01.708Z,3.40
2019-03-01T23:18:30.718Z,3.40
2019-03-01T23:21:01.092Z,3.50
2019-03-01T23:23:30.250Z,3.40
2019-03-01T23:25:59.726Z,3.40
2019-03-01T23:28:29.647Z,3.40
2019-03-01T23:31:00.559Z,3.40
2019-03-01T23:33:31.566Z,3.40
2019-03-01T23:36:00.325Z,3.40
2019-03-01T23:38:29.310Z,3.40
2019-03-01T23:40:59.800Z,3.30
2019-03-01T23:43:30.787Z,3.20
2019-03-01T23:45:59.546Z,3.20
2019-03-01T23:48:28.490Z,3.20
2019-03-01T23:50:57.452Z,3.10
2019-03-01T23:53:30.854Z,3.10
2019-03-01T23:55:59.358Z,3.00
2019-03-01T23:58:28.315Z,3.00
